Time;durP1;ratioP1;P1;durP2;ratioP2;P2;SDS_P1;SDS_P2;PMS_P1;PMS_P2;Temp;Humidity;BMP_temperature;BMP_pressure;BME280_temperature;BME280_humidity;BME280_pressure;Samples;Min_cycle;Max_cycle;Signal;HPM_P1;HPM_P2
2022/11/16 00:01:18;;;;;;;21.55;14.40;;;;;;;11.22;100.00;99718.09;5041123;28;20036;-38
2022/11/16 00:03:44;;;;;;;19.75;14.45;;;;;;;11.21;100.00;99711.03;5036335;28;20058;-38
2022/11/16 00:06:10;;;;;;;20.73;14.43;;;;;;;11.28;100.00;99708.31;5043768;28;20104;-38
2022/11/16 00:08:39;;;;;;;20.35;14.70;;;;;;;11.32;100.00;99712.22;5036985;28;20023;-40
2022/11/16 00:11:13;;;;;;;19.95;13.90;;;;;;;11.29;100.00;99707.28;5040120;28;20040;-38
2022/11/16 00:13:41;;;;;;;25.73;15.38;;;;;;;11.26;100.00;99708.53;5038177;28;20050;-37
2022/11/16 00:16:08;;;;;;;19.08;14.70;;;;;;;11.26;100.00;99708.53;5045834;28;20095;-39
2022/11/16 00:18:33;;;;;;;21.45;14.95;;;;;;;11.27;100.00;99709.34;5031343;28;20039;-37
2022/11/16 00:20:58;;;;;;;20.75;15.10;;;;;;;11.29;100.00;99707.28;5039136;28;20119;-39
2022/11/16 00:23:24;;;;;;;18.73;15.10;;;;;;;11.32;100.00;99717.59;5042867;28;20285;-39
2022/11/16 00:25:50;;;;;;;23.58;14.73;;;;;;;11.33;100.00;99711.19;5047090;28;20025;-40
2022/11/16 00:28:15;;;;;;;21.08;15.15;;;;;;;11.30;100.00;99714.31;5027660;28;20402;-38
2022/11/16 00:30:41;;;;;;;19.70;14.20;;;;;;;11.32;100.00;99718.47;5047487;28;20071;-41
2022/11/16 00:33:07;;;;;;;20.23;14.77;;;;;;;11.31;100.00;99716.78;5041173;28;20029;-38
2022/11/16 00:35:38;;;;;;;22.17;14.82;;;;;;;11.35;100.00;99722.59;5028762;28;20036;-38
2022/11/16 00:38:03;;;;;;;19.65;14.63;;;;;;;11.29;100.00;99718.03;5030180;28;20033;-39
2022/11/16 00:40:28;;;;;;;21.08;14.60;;;;;;;11.26;100.00;99729.25;5038864;28;20033;-38
2022/11/16 00:42:54;;;;;;;23.70;15.05;;;;;;;11.24;100.00;99715.16;5047920;28;20127;-38
2022/11/16 00:45:19;;;;;;;23.92;15.48;;;;;;;11.25;100.00;99716.84;5038403;28;20128;-41
2022/11/16 00:47:44;;;;;;;32.15;15.57;;;;;;;11.22;100.00;99728.84;5049289;28;20419;-39
2022/11/16 00:50:10;;;;;;;35.83;17.55;;;;;;;11.20;100.00;99737.13;5022394;28;20033;-39
2022/11/16 00:52:35;;;;;;;23.58;16.52;;;;;;;11.21;100.00;99730.69;5028932;28;20387;-43
2022/11/16 00:55:01;;;;;;;25.08;15.27;;;;;;;11.14;100.00;99738.00;5033460;28;20112;-48
2022/11/16 00:57:26;;;;;;;26.05;16.38;;;;;;;11.07;100.00;99731.81;5048103;28;20045;-48
2022/11/16 00:59:51;;;;;;;28.60;15.50;;;;;;;11.01;100.00;99746.13;5033765;28;20025;-46
2022/11/16 01:02:17;;;;;;;23.83;14.85;;;;;;;10.96;100.00;99738.69;5032072;28;20033;-47
2022/11/16 01:04:42;;;;;;;19.52;14.40;;;;;;;10.92;100.00;99742.81;5045997;28;20029;-47
2022/11/16 01:07:07;;;;;;;22.17;14.73;;;;;;;10.90;100.00;99746.75;5034740;28;20029;-47
2022/11/16 01:09:33;;;;;;;24.63;15.25;;;;;;;10.87;100.00;99739.91;5030486;28;20543;-48
2022/11/16 01:12:07;;;;;;;21.42;14.38;;;;;;;10.86;100.00;99734.78;5043669;28;20037;-48
2022/11/16 01:14:33;;;;;;;18.50;13.60;;;;;;;10.83;100.00;99740.56;5038281;28;20049;-47
2022/11/16 01:16:59;;;;;;;20.20;14.57;;;;;;;10.81;100.00;99737.25;5035564;28;20076;-46
2022/11/16 01:19:24;;;;;;;20.23;14.10;;;;;;;10.78;100.00;99727.75;5042353;28;20033;-47
2022/11/16 01:21:49;;;;;;;22.73;14.13;;;;;;;10.77;100.00;99729.63;5037204;28;20466;-47
2022/11/16 01:24:15;;;;;;;22.38;14.48;;;;;;;10.75;100.00;99729.00;5042620;28;20094;-46
2022/11/16 01:26:40;;;;;;;23.83;14.63;;;;;;;10.73;100.00;99716.78;5050480;28;20067;-46
2022/11/16 01:29:05;;;;;;;22.50;14.43;;;;;;;10.72;100.00;99718.66;5040898;28;20062;-46
2022/11/16 01:31:31;;;;;;;24.40;14.85;;;;;;;10.69;100.00;99720.91;5049914;28;20043;-47
2022/11/16 01:33:56;;;;;;;21.63;15.50;;;;;;;10.68;100.00;99721.97;5045072;28;20037;-47
2022/11/16 01:36:21;;;;;;;24.10;14.13;;;;;;;10.66;100.00;99719.47;5041357;28;20057;-47
2022/11/16 01:38:47;;;;;;;24.30;14.90;;;;;;;10.65;100.00;99715.13;5037329;28;20030;-47
2022/11/16 01:41:19;;;;;;;22.95;15.35;;;;;;;10.65;100.00;99717.84;5034450;28;20455;-45
2022/11/16 01:43:54;;;;;;;26.38;15.88;;;;;;;10.67;100.00;99714.94;5048883;28;20033;-45
2022/11/16 01:46:19;;;;;;;30.40;16.27;;;;;;;10.77;100.00;99721.53;5050581;28;20116;-45
2022/11/16 01:48:46;;;;;;;30.83;17.33;;;;;;;10.67;100.00;99710.38;5033760;28;20159;-45
2022/11/16 01:51:12;;;;;;;32.40;16.40;;;;;;;10.66;100.00;99718.66;5049028;28;20053;-45
2022/11/16 01:53:37;;;;;;;25.48;15.98;;;;;;;10.66;100.00;99719.47;5040198;28;20466;-44
2022/11/16 01:56:03;;;;;;;23.98;16.20;;;;;;;10.64;100.00;99710.81;5042040;28;20546;-44
2022/11/16 01:58:28;;;;;;;22.88;15.73;;;;;;;10.62;100.00;99714.75;5052180;28;20159;-44
2022/11/16 02:00:54;;;;;;;23.92;15.90;;;;;;;10.61;100.00;99715.75;5030142;28;20021;-45
2022/11/16 02:03:20;;;;;;;26.88;15.93;;;;;;;10.61;100.00;99716.63;5043296;28;20329;-44
2022/11/16 02:06:05;;;;;;;29.20;15.75;;;;;;;10.54;100.00;99722.00;5049290;28;20378;-45
2022/11/16 02:11:55;;;;;;;24.23;15.43;;;;;;;10.48;100.00;99722.84;5047821;28;20064;-45
2022/11/16 02:14:23;;;;;;;23.20;15.13;;;;;;;10.46;100.00;99738.34;5034890;28;20080;-44
2022/11/16 02:16:54;;;;;;;;;;;;;;;10.45;100.00;99734.00;5049363;28;20556;-45
2022/11/16 02:19:57;;;;;;;22.80;15.00;;;;;;;10.55;100.00;99728.19;5049476;28;19943;-45
2022/11/16 02:23:00;;;;;;;19.73;14.05;;;;;;;10.38;100.00;99721.59;5043378;28;20079;-45
2022/11/16 02:25:52;;;;;;;21.52;14.13;;;;;;;10.35;100.00;99722.00;5030679;28;20535;-45
2022/11/16 02:28:40;;;;;;;27.88;15.65;;;;;;;10.31;100.00;99716.22;5043894;28;20040;-45
2022/11/16 02:31:06;;;;;;;25.67;14.93;;;;;;;10.30;100.00;99717.25;5048996;28;20033;-45
2022/11/16 02:33:38;;;;;;;26.13;15.35;;;;;;;10.27;100.00;99715.81;5037171;28;20029;-46
2022/11/16 02:36:05;;;;;;;22.35;14.25;;;;;;;10.27;100.00;99720.34;5037601;28;20033;-44
2022/11/16 02:38:34;;;;;;;28.17;15.18;;;;;;;10.26;100.00;99716.81;5040990;28;20080;-44
2022/11/16 02:41:13;;;;;;;28.00;16.30;;;;;;;10.27;100.00;99715.81;5029793;28;20120;-46
2022/11/16 02:43:44;;;;;;;27.20;16.80;;;;;;;10.26;100.00;99708.72;5038251;28;20087;-45
2022/11/16 02:46:14;;;;;;;29.77;17.67;;;;;;;10.24;100.00;99710.81;5039272;28;20033;-45
2022/11/16 02:48:42;;;;;;;27.95;17.70;;;;;;;10.23;100.00;99717.22;5032549;28;20025;-46
2022/11/16 02:51:08;;;;;;;28.90;16.75;;;;;;;10.23;100.00;99705.66;5042149;28;20021;-45
2022/11/16 02:53:40;;;;;;;32.83;17.05;;;;;;;10.21;100.00;99715.78;5043263;28;20533;-45
2022/11/16 02:56:05;;;;;;;29.88;17.00;;;;;;;10.20;100.00;99723.03;5041128;28;20025;-45
2022/11/16 02:58:31;;;;;;;29.88;15.38;;;;;;;10.17;100.00;99726.13;5048922;28;20107;-46
2022/11/16 03:01:07;;;;;;;29.90;15.43;;;;;;;10.17;100.00;99722.63;5031404;28;20071;-45
2022/11/16 03:03:40;;;;;;;27.38;14.23;;;;;;;10.16;100.00;99718.25;5031731;28;20432;-46
2022/11/16 03:06:10;;;;;;;31.95;12.48;;;;;;;10.16;100.00;99712.88;5034559;28;20096;-45
2022/11/16 03:08:41;;;;;;;27.80;12.27;;;;;;;10.13;100.00;99714.13;5030780;28;20036;-46
2022/11/16 03:13:57;;;;;;;18.70;10.25;;;;;;;10.09;100.00;99718.25;5033178;28;20471;-45
2022/11/16 03:16:30;;;;;;;24.02;9.50;;;;;;;10.04;100.00;99715.38;5034206;28;20043;-45
2022/11/16 03:18:57;;;;;;;27.50;10.38;;;;;;;10.03;100.00;99724.44;5030948;28;20037;-46
2022/11/16 03:21:57;;;;;;;25.10;9.45;;;;;;;10.03;100.00;99713.69;5045806;28;20104;-46
2022/11/16 03:24:23;;;;;;;16.95;8.70;;;;;;;9.99;100.00;99717.84;5042740;28;20025;-46
2022/11/16 03:27:23;;;;;;;26.30;9.18;;;;;;;10.01;100.00;99721.16;5040180;28;20025;-46
2022/11/16 03:29:58;;;;;;;23.38;8.23;;;;;;;9.99;100.00;99715.16;5028599;28;20032;-45
2022/11/16 03:32:32;;;;;;;23.10;8.77;;;;;;;9.97;100.00;99715.34;5044307;28;20036;-46
2022/11/16 03:35:13;;;;;;;18.67;7.60;;;;;;;9.94;100.00;99718.44;5044612;28;20083;-45
2022/11/16 03:37:39;;;;;;;22.73;7.30;;;;;;;9.95;100.00;99721.97;5029823;28;20037;-45
2022/11/16 03:40:06;;;;;;;18.08;7.47;;;;;;;9.94;100.00;99720.31;5037384;28;20034;-46
2022/11/16 03:42:32;;;;;;;16.17;8.10;;;;;;;9.94;100.00;99720.31;5027872;28;20040;-45
2022/11/16 03:44:57;;;;;;;14.30;7.47;;;;;;;9.92;100.00;99717.81;5033526;28;20030;-46
2022/11/16 03:47:23;;;;;;;20.38;8.07;;;;;;;9.93;100.00;99721.38;5028723;28;20034;-46
2022/11/16 03:49:48;;;;;;;18.52;8.18;;;;;;;9.92;100.00;99722.38;5029336;28;20545;-46
2022/11/16 03:52:15;;;;;;;21.98;8.23;;;;;;;9.89;100.00;99719.06;5037983;28;20478;-46
2022/11/16 03:54:41;;;;;;;18.80;7.38;;;;;;;9.88;100.00;99717.41;5037708;28;20025;-46
2022/11/16 03:57:06;;;;;;;20.77;7.40;;;;;;;9.86;100.00;99708.72;5048730;28;20055;-45
2022/11/16 03:59:32;;;;;;;25.67;8.70;;;;;;;9.86;100.00;99724.03;5046289;28;20024;-46
2022/11/16 04:01:57;;;;;;;23.70;8.48;;;;;;;9.84;100.00;99720.72;5047400;28;20100;-46
2022/11/16 04:28:11;;;;;;;15.93;7.55;;;;;;;9.64;100.00;99734.13;5037314;28;20502;-45
2022/11/16 04:29:07;;;;;;;19.80;7.30;;;;;;;9.61;100.00;99738.03;5037983;28;20152;-46
2022/11/16 04:39:45;;;;;;;18.02;7.47;;;;;;;9.53;100.00;99740.06;5043312;28;20482;-45
2022/11/16 04:42:21;;;;;;;20.05;7.40;;;;;;;9.52;100.00;99743.78;5047598;28;20021;-45
2022/11/16 04:47:30;;;;;;;26.05;7.07;;;;;;;9.47;100.00;99739.00;5030040;28;20045;-45
2022/11/16 04:49:56;;;;;;;16.17;7.32;;;;;;;9.45;100.00;99739.25;5049495;28;20047;-45
2022/11/16 04:52:21;;;;;;;16.33;6.97;;;;;;;9.43;100.00;99741.28;5052825;28;20421;-45
2022/11/16 04:54:47;;;;;;;21.77;7.50;;;;;;;9.41;100.00;99745.22;5038843;28;20041;-46
2022/11/16 04:57:12;;;;;;;21.80;7.43;;;;;;;9.38;100.00;99743.75;5037634;28;20060;-45
2022/11/16 04:59:37;;;;;;;15.75;6.65;;;;;;;9.37;100.00;99742.09;5036129;28;20586;-44
2022/11/16 05:02:08;;;;;;;17.92;6.63;;;;;;;9.40;100.00;99747.06;5033725;28;20086;-46
2022/11/16 05:04:39;;;;;;;13.10;6.50;;;;;;;9.38;100.00;99741.06;5050012;28;20495;-45
2022/11/16 05:07:09;;;;;;;21.17;7.53;;;;;;;9.33;100.00;99743.53;5038544;28;20101;-46
2022/11/16 05:09:38;;;;;;;21.98;7.32;;;;;;;9.34;100.00;99745.16;5032878;28;20083;-45
2022/11/16 05:12:04;;;;;;;18.02;6.60;;;;;;;9.33;100.00;99738.16;5034375;28;20032;-46
2022/11/16 05:14:29;;;;;;;15.80;6.70;;;;;;;9.32;100.00;99739.19;5042199;28;20044;-45
2022/11/16 05:16:55;;;;;;;20.27;7.25;;;;;;;9.31;100.00;99734.84;5039966;28;20468;-46
2022/11/16 05:22:04;;;;;;;19.25;7.50;;;;;;;9.27;100.00;99730.91;5045585;28;20462;-45
2022/11/16 05:24:32;;;;;;;22.33;5.88;;;;;;;9.20;100.00;99735.41;5032874;28;20032;-45
2022/11/16 05:26:57;;;;;;;12.75;5.65;;;;;;;9.18;100.00;99738.28;5031371;28;20480;-45
2022/11/16 05:29:23;;;;;;;19.15;4.80;;;;;;;9.15;100.00;99735.19;5046698;28;20025;-46
2022/11/16 05:31:48;;;;;;;13.13;4.57;;;;;;;9.15;100.00;99737.88;5048770;28;20026;-45
2022/11/16 05:34:13;;;;;;;23.17;4.97;;;;;;;9.15;100.00;99743.25;5048297;28;20028;-45
2022/11/16 05:36:39;;;;;;;14.25;4.57;;;;;;;9.11;100.00;99726.72;5036822;28;20132;-45
2022/11/16 05:39:04;;;;;;;11.45;3.83;;;;;;;9.10;100.00;99740.31;5032807;28;20025;-45
2022/11/16 05:41:30;;;;;;;24.83;4.07;;;;;;;9.04;100.00;99736.59;5031088;28;20029;-45
2022/11/16 05:43:57;;;;;;;14.65;3.40;;;;;;;9.00;100.00;99738.84;5045918;28;20402;-45
2022/11/16 05:46:22;;;;;;;19.73;4.55;;;;;;;8.96;100.00;99729.53;5038738;28;20036;-43
2022/11/16 05:48:48;;;;;;;17.30;3.10;;;;;;;8.92;100.00;99732.78;5042710;28;20029;-45
2022/11/16 05:51:13;;;;;;;9.38;2.83;;;;;;;8.87;100.00;99736.06;5051103;28;20036;-45
2022/11/16 05:53:38;;;;;;;11.27;2.97;;;;;;;8.83;100.00;99729.44;5046041;28;20035;-46
2022/11/16 05:56:04;;;;;;;14.77;3.10;;;;;;;8.78;100.00;99732.72;5037811;28;20029;-45
2022/11/16 05:58:29;;;;;;;11.30;2.65;;;;;;;8.71;100.00;99733.69;5035633;28;20394;-45
2022/11/16 06:00:55;;;;;;;13.95;2.75;;;;;;;8.70;100.00;99740.94;5052866;28;20443;-45
2022/11/16 06:03:20;;;;;;;10.70;2.53;;;;;;;8.68;100.00;99742.16;5048468;28;20099;-46
2022/11/16 06:05:45;;;;;;;13.93;3.00;;;;;;;8.65;100.00;99738.00;5059125;28;20073;-46
2022/11/16 06:08:11;;;;;;;14.48;2.35;;;;;;;8.64;100.00;99740.91;5066793;28;20325;-45
2022/11/16 06:10:36;;;;;;;14.93;2.53;;;;;;;8.62;100.00;99748.31;5047076;28;20036;-46
2022/11/16 06:13:01;;;;;;;9.80;2.63;;;;;;;8.59;100.00;99740.66;5047372;28;20061;-45
2022/11/16 06:15:27;;;;;;;15.48;3.03;;;;;;;8.54;100.00;99739.38;5032714;28;20046;-46
2022/11/16 06:17:52;;;;;;;12.48;3.05;;;;;;;8.51;100.00;99742.47;5038983;28;20033;-46
2022/11/16 06:20:17;;;;;;;14.57;2.53;;;;;;;8.47;100.00;99740.34;5064698;28;20478;-45
2022/11/16 06:22:43;;;;;;;13.38;2.40;;;;;;;8.46;100.00;99755.63;5070277;28;20438;-44
2022/11/16 06:25:09;;;;;;;11.48;2.90;;;;;;;8.43;100.00;99749.81;5036555;28;20104;-46
2022/11/16 06:27:38;;;;;;;14.15;2.95;;;;;;;8.39;100.00;99745.84;5020854;28;21046;-46
2022/11/16 06:30:04;;;;;;;14.50;3.30;;;;;;;8.33;100.00;99747.44;5045031;28;20374;-45
2022/11/16 06:32:30;;;;;;;20.40;2.92;;;;;;;8.28;100.00;99752.56;5043205;28;20033;-45
2022/11/16 06:34:55;;;;;;;11.20;3.15;;;;;;;8.24;100.00;99757.50;5044406;28;20051;-45
2022/11/16 06:37:20;;;;;;;22.88;5.85;;;;;;;8.21;100.00;99757.03;5041494;28;20060;-46
2022/11/16 06:39:46;;;;;;;12.15;3.35;;;;;;;8.19;100.00;99759.91;5041006;28;20112;-45
2022/11/16 06:42:11;;;;;;;22.08;4.15;;;;;;;8.16;100.00;99757.59;5040093;28;20029;-46
2022/11/16 06:44:36;;;;;;;25.27;3.92;;;;;;;8.13;100.00;99761.50;5041518;28;20075;-46
2022/11/16 06:47:02;;;;;;;18.98;4.38;;;;;;;8.12;100.00;99754.47;5042219;28;20059;-45
2022/11/16 06:49:27;;;;;;;18.63;3.60;;;;;;;8.09;100.00;99764.78;5042775;28;20123;-45
2022/11/16 06:51:53;;;;;;;27.02;3.85;;;;;;;8.07;100.00;99764.94;5039251;28;20048;-46
2022/11/16 06:54:18;;;;;;;18.05;3.55;;;;;;;8.05;100.00;99766.97;5044301;28;20041;-46
2022/11/16 06:56:43;;;;;;;15.32;3.92;;;;;;;8.05;100.00;99769.66;5044721;28;20065;-46
2022/11/16 06:59:09;;;;;;;23.80;5.38;;;;;;;8.05;100.00;99780.38;5044336;28;20032;-46
2022/11/16 07:01:34;;;;;;;17.80;3.38;;;;;;;8.04;100.00;99781.41;5046198;28;20118;-47
2022/11/16 07:04:00;;;;;;;11.23;3.60;;;;;;;8.04;100.00;99773.38;5042113;28;20086;-45
2022/11/16 07:06:25;;;;;;;13.63;3.60;;;;;;;8.04;100.00;99776.06;5045418;28;20029;-44
2022/11/16 07:08:51;;;;;;;13.40;3.47;;;;;;;8.05;100.00;99783.06;5039894;28;20040;-46
2022/11/16 07:11:16;;;;;;;14.63;3.55;;;;;;;8.04;100.00;99784.09;5029890;28;20064;-46
2022/11/16 07:13:41;;;;;;;19.77;3.38;;;;;;;8.03;100.00;99790.50;5038640;28;20037;-48
2022/11/16 07:16:08;;;;;;;22.85;3.55;;;;;;;8.03;100.00;99777.09;5031127;28;20017;-45
2022/11/16 07:18:35;;;;;;;24.52;5.18;;;;;;;8.02;100.00;99779.94;5044875;28;20025;-46
2022/11/16 07:21:09;;;;;;;19.33;3.50;;;;;;;8.01;100.00;99776.44;5042720;28;20101;-44
2022/11/16 07:23:35;;;;;;;16.92;3.83;;;;;;;8.03;100.00;99778.91;5045461;28;20032;-45
2022/11/16 07:26:01;;;;;;;23.50;3.22;;;;;;;8.04;100.00;99781.41;5043124;28;20128;-46
2022/11/16 07:28:28;;;;;;;17.90;3.65;;;;;;;8.11;100.00;99789.53;5042236;28;20035;-46
2022/11/16 07:30:53;;;;;;;17.05;3.70;;;;;;;8.07;100.00;99794.44;5043363;28;20116;-45
2022/11/16 07:33:19;;;;;;;21.75;3.88;;;;;;;8.09;100.00;99791.56;5042872;28;20542;-45
2022/11/16 07:35:44;;;;;;;23.70;3.42;;;;;;;8.13;100.00;99799.00;5041367;28;20136;-46
2022/11/16 07:38:10;;;;;;;14.27;3.03;;;;;;;8.17;100.00;99804.00;5043570;28;20037;-46
2022/11/16 07:40:35;;;;;;;11.57;3.22;;;;;;;8.22;100.00;99809.63;5044173;28;20040;-45
2022/11/16 07:43:01;;;;;;;16.17;3.10;;;;;;;8.24;100.00;99805.72;5043151;28;20483;-45
2022/11/16 07:45:26;;;;;;;17.63;3.17;;;;;;;8.29;100.00;99802.44;5044518;28;20056;-45
2022/11/16 07:47:52;;;;;;;15.00;3.42;;;;;;;8.33;100.00;99803.75;5044014;28;20513;-46
2022/11/16 07:50:17;;;;;;;15.40;3.13;;;;;;;8.44;100.00;99808.59;5043474;28;20449;-46
2022/11/16 07:52:45;;;;;;;23.17;3.45;;;;;;;8.49;100.00;99808.03;5044423;28;20032;-46
2022/11/16 07:55:11;;;;;;;21.67;3.25;;;;;;;8.62;100.00;99818.03;5042749;28;20096;-46
2022/11/16 07:57:37;;;;;;;15.90;3.22;;;;;;;8.81;100.00;99816.53;5043752;28;20028;-45
2022/11/16 08:00:04;;;;;;;18.02;2.88;;;;;;;8.87;100.00;99827.28;5044030;28;20056;-45
2022/11/16 08:02:29;;;;;;;12.93;3.20;;;;;;;9.17;100.00;99816.34;5043452;28;20166;-45
2022/11/16 08:04:54;;;;;;;17.58;3.83;;;;;;;9.50;100.00;99821.88;5042875;28;20029;-45
2022/11/16 08:07:20;;;;;;;18.75;3.25;;;;;;;10.03;100.00;99805.09;5041571;28;20391;-45
2022/11/16 08:09:45;;;;;;;15.77;2.78;;;;;;;10.52;100.00;99796.69;5043848;28;20064;-46
2022/11/16 08:12:11;;;;;;;11.77;2.55;;;;;;;10.75;100.00;99790.88;5040663;28;20052;-45
2022/11/16 08:14:37;;;;;;;12.73;2.63;;;;;;;11.26;100.00;99800.09;5043315;28;20049;-45
2022/11/16 08:17:03;;;;;;;17.15;3.75;;;;;;;11.27;100.00;99791.00;5043756;28;20041;-45
2022/11/16 08:19:29;;;;;;;17.48;2.85;;;;;;;11.49;100.00;99786.13;5042790;28;20033;-45
2022/11/16 08:21:54;;;;;;;10.60;3.00;;;;;;;11.03;100.00;99786.28;5042240;28;20033;-45
2022/11/16 08:24:20;;;;;;;11.00;2.75;;;;;;;11.21;100.00;99787.25;5042961;28;20105;-46
2022/11/16 08:26:45;;;;;;;21.83;3.28;;;;;;;11.28;100.00;99792.63;5043622;28;20057;-44
2022/11/16 08:29:10;;;;;;;15.82;2.70;;;;;;;11.27;100.00;99779.38;5044136;28;20025;-45
2022/11/16 08:31:36;;;;;;;13.95;2.85;;;;;;;11.26;100.00;99783.13;5042314;28;20029;-45
2022/11/16 08:34:01;;;;;;;13.23;2.75;;;;;;;11.47;100.00;99774.75;5043712;28;20139;-45
2022/11/16 08:36:27;;;;;;;15.95;2.60;;;;;;;11.76;100.00;99777.91;5042371;28;20067;-45
2022/11/16 08:38:52;;;;;;;7.50;2.50;;;;;;;11.76;100.00;99786.00;5043585;28;20039;-45
2022/11/16 08:41:18;;;;;;;10.88;2.50;;;;;;;11.85;100.00;99785.56;5041866;28;20021;-45
2022/11/16 08:43:46;;;;;;;8.05;2.50;;;;;;;12.19;100.00;99788.91;5043497;28;20060;-45
2022/11/16 08:46:11;;;;;;;11.05;2.55;;;;;;;12.86;96.95;99781.06;5043700;28;20434;-45
2022/11/16 08:48:37;;;;;;;8.93;2.13;;;;;;;12.58;96.46;99781.50;5041730;28;20041;-45
2022/11/16 08:51:04;;;;;;;17.50;2.83;;;;;;;12.41;96.18;99777.72;5043319;28;20040;-46
2022/11/16 08:53:30;;;;;;;13.93;2.22;;;;;;;12.37;97.92;99796.22;5042306;28;20061;-45
2022/11/16 08:56:01;;;;;;;10.55;2.22;;;;;;;11.99;98.19;99774.72;5040874;28;20059;-46
2022/11/16 08:58:26;;;;;;;11.50;2.60;;;;;;;12.93;97.86;99786.41;5041445;28;20036;-45
2022/11/16 09:00:52;;;;;;;8.23;1.77;;;;;;;12.46;97.35;99786.81;5040702;28;20083;-45
2022/11/16 09:03:17;;;;;;;14.80;2.35;;;;;;;12.43;96.57;99781.88;5040754;28;20043;-45
2022/11/16 09:05:43;;;;;;;10.35;2.67;;;;;;;12.39;94.81;99777.13;5043651;28;20025;-45
2022/11/16 09:08:10;;;;;;;9.45;2.38;;;;;;;12.06;95.82;99787.13;5042107;28;20056;-45
2022/11/16 09:10:36;;;;;;;14.57;3.08;;;;;;;11.54;99.32;99777.41;5039144;28;20593;-45
2022/11/16 09:13:01;;;;;;;10.55;2.33;;;;;;;11.52;100.00;99782.19;5042646;28;20033;-45
2022/11/16 09:15:27;;;;;;;15.70;2.70;;;;;;;11.68;100.00;99788.97;5043669;28;20053;-45
2022/11/16 09:17:53;;;;;;;8.20;2.05;;;;;;;11.86;100.00;99783.72;5041295;28;20025;-45
2022/11/16 09:20:19;;;;;;;13.32;2.75;;;;;;;11.37;100.00;99787.84;5042550;28;20017;-44
2022/11/16 09:22:44;;;;;;;16.10;2.80;;;;;;;11.39;100.00;99791.97;5042989;28;20364;-45
2022/11/16 09:25:10;;;;;;;13.43;2.70;;;;;;;11.32;100.00;99793.03;5041285;28;20029;-45
2022/11/16 09:27:36;;;;;;;17.08;2.97;;;;;;;10.91;100.00;99792.31;5043078;28;20029;-44
2022/11/16 09:30:02;;;;;;;14.57;2.70;;;;;;;10.75;100.00;99807.03;5043140;28;20091;-44
2022/11/16 09:32:27;;;;;;;13.20;2.55;;;;;;;10.67;100.00;99796.50;5042488;28;20426;-46
2022/11/16 09:34:52;;;;;;;13.30;2.10;;;;;;;10.68;100.00;99808.06;5042681;28;20031;-45
2022/11/16 09:37:18;;;;;;;14.93;2.47;;;;;;;10.44;100.00;99798.78;5045038;28;20028;-45
2022/11/16 09:39:43;;;;;;;10.55;2.35;;;;;;;10.26;100.00;99802.84;5046408;28;20025;-44
2022/11/16 09:42:39;;;;;;;16.75;2.88;;;;;;;10.16;100.00;99805.13;5047658;28;20036;-45
2022/11/16 09:45:13;;;;;;;7.05;2.25;;;;;;;10.24;100.00;99807.63;5045393;28;20044;-45
2022/11/16 09:47:48;;;;;;;18.90;3.08;;;;;;;10.40;100.00;99810.97;5043607;28;20287;-45
2022/11/16 09:50:41;;;;;;;24.40;3.10;;;;;;;10.45;100.00;99803.09;5045737;28;20033;-45
2022/11/16 09:53:17;;;;;;;11.70;2.53;;;;;;;11.12;100.00;99798.50;5046605;28;20045;-45
2022/11/16 09:55:47;;;;;;;11.18;2.75;;;;;;;11.40;100.00;99800.88;5041347;28;20034;-45
2022/11/16 09:58:16;;;;;;;14.25;2.70;;;;;;;11.60;100.00;99790.84;5047405;28;20032;-45
2022/11/16 10:00:46;;;;;;;11.88;2.47;;;;;;;11.70;100.00;99803.88;5043111;28;20033;-45
2022/11/16 10:03:12;;;;;;;9.23;2.08;;;;;;;11.78;100.00;99797.41;5042173;28;20036;-45
2022/11/16 10:05:43;;;;;;;9.95;2.33;;;;;;;11.46;100.00;99797.34;5062894;28;20764;-45
2022/11/16 10:08:13;;;;;;;14.82;2.70;;;;;;;11.77;100.00;99795.75;5044021;28;20029;-45
2022/11/16 10:10:49;;;;;;;11.32;2.50;;;;;;;11.72;100.00;99790.19;5044283;28;20115;-47
2022/11/16 10:13:47;;;;;;;12.80;2.22;;;;;;;11.44;100.00;99794.03;5045737;28;20036;-46
2022/11/16 10:16:15;;;;;;;11.30;2.63;;;;;;;11.39;100.00;99783.06;5044805;28;20044;-45
2022/11/16 10:18:54;;;;;;;15.77;3.38;;;;;;;11.62;100.00;99786.06;5044326;28;20040;-45
2022/11/16 10:21:41;;;;;;;11.77;2.60;;;;;;;11.80;100.00;99779.16;5047004;28;20035;-44
2022/11/16 10:24:24;;;;;;;15.95;3.08;;;;;;;12.08;100.00;99785.03;5045755;28;20021;-45
2022/11/16 10:26:55;;;;;;;11.43;2.95;;;;;;;12.03;98.14;99781.31;5045626;28;20033;-46
2022/11/16 10:29:30;;;;;;;14.45;3.10;;;;;;;11.83;100.00;99784.94;5046236;28;20045;-46
2022/11/16 10:32:07;;;;;;;14.68;2.72;;;;;;;11.71;100.00;99791.22;5042980;28;20037;-46
2022/11/16 10:34:50;;;;;;;10.27;2.97;;;;;;;11.66;100.00;99797.25;5046726;28;20033;-46
2022/11/16 10:37:16;;;;;;;10.55;2.78;;;;;;;11.36;100.00;99778.09;5041877;28;20029;-45
2022/11/16 10:39:41;;;;;;;11.68;2.50;;;;;;;11.25;100.00;99786.84;5042442;28;20032;-46
2022/11/16 10:42:13;;;;;;;9.52;2.58;;;;;;;11.41;100.00;99783.69;5045252;28;20032;-46
2022/11/16 10:44:42;;;;;;;12.77;2.85;;;;;;;11.20;100.00;99791.00;5044761;28;20040;-46
2022/11/16 10:47:35;;;;;;;12.15;3.05;;;;;;;11.44;100.00;99777.88;5027376;28;20157;-46
2022/11/16 10:50:37;;;;;;;11.70;2.50;;;;;;;11.51;100.00;99780.53;5044366;28;20474;-46
2022/11/16 10:53:02;;;;;;;12.82;2.90;;;;;;;11.68;100.00;99770.09;5042463;28;20045;-45
2022/11/16 10:55:28;;;;;;;12.77;2.75;;;;;;;11.63;100.00;99768.03;5044102;28;20145;-45
2022/11/16 10:57:56;;;;;;;12.32;3.08;;;;;;;11.73;100.00;99772.97;5046308;28;20017;-45
2022/11/16 11:00:41;;;;;;;;;;;;;;;11.87;100.00;99771.88;5045570;28;20021;-45
2022/11/16 11:03:09;;;;;;;12.23;2.65;;;;;;;11.49;100.00;99772.66;5028733;28;20168;-46
2022/11/16 11:05:35;;;;;;;;;;;;;;;11.33;100.00;99781.22;5047672;28;20033;-46
2022/11/16 11:08:03;;;;;;;14.68;2.97;;;;;;;11.29;100.00;99782.69;5027974;28;20268;-45
2022/11/16 11:10:39;;;;;;;15.15;2.83;;;;;;;11.17;100.00;99780.66;5046845;28;20192;-45
2022/11/16 11:13:10;;;;;;;13.80;3.30;;;;;;;11.20;100.00;99774.84;5046477;28;20033;-46
2022/11/16 11:15:41;;;;;;;11.82;3.20;;;;;;;10.96;100.00;99780.94;5045302;28;20140;-46
2022/11/16 11:18:15;;;;;;;16.92;3.38;;;;;;;10.89;100.00;99780.09;5044641;28;20033;-45
2022/11/16 11:20:42;;;;;;;9.48;3.00;;;;;;;10.83;100.00;99786.34;5046474;28;20039;-46
2022/11/16 11:23:17;;;;;;;14.63;3.05;;;;;;;10.81;100.00;99793.78;5046224;28;20554;-45
2022/11/16 11:25:50;;;;;;;20.45;3.83;;;;;;;10.71;100.00;99786.94;5028316;28;20032;-45
2022/11/16 11:28:27;;;;;;;13.55;3.60;;;;;;;10.68;100.00;99790.06;5027944;28;20041;-45
2022/11/16 11:31:24;;;;;;;13.20;3.67;;;;;;;10.65;100.00;99787.78;5044289;28;20458;-45
2022/11/16 11:34:04;;;;;;;15.27;3.53;;;;;;;10.60;100.00;99790.28;5043788;28;20279;-45
2022/11/16 11:36:41;;;;;;;15.93;4.30;;;;;;;10.55;100.00;99787.38;5043640;28;20075;-45
2022/11/16 11:39:25;;;;;;;13.40;4.80;;;;;;;10.60;100.00;99789.47;5059354;28;20162;-45
2022/11/16 11:42:12;;;;;;;18.20;4.38;;;;;;;10.54;100.00;99785.75;5042470;28;20039;-45
2022/11/16 11:44:49;;;;;;;16.10;4.60;;;;;;;10.60;100.00;99782.22;5045866;28;20401;-46
2022/11/16 11:47:36;;;;;;;16.60;4.30;;;;;;;10.53;100.00;99774.16;5042460;28;20490;-46
2022/11/16 11:50:40;;;;;;;14.80;3.92;;;;;;;10.56;100.00;99764.84;5044848;28;20033;-46
2022/11/16 11:53:22;;;;;;;16.52;5.18;;;;;;;10.93;100.00;99766.03;5044360;28;20405;-47
2022/11/16 11:55:51;;;;;;;14.52;4.00;;;;;;;11.15;100.00;99750.41;5041183;28;20471;-46
2022/11/16 11:58:18;;;;;;;12.68;4.72;;;;;;;11.06;100.00;99757.09;5039799;28;20063;-46
2022/11/16 12:00:54;;;;;;;20.45;6.00;;;;;;;10.92;100.00;99756.28;5030632;28;20498;-46
2022/11/16 12:03:39;;;;;;;16.73;4.68;;;;;;;10.91;100.00;99751.94;5044134;28;20040;-46
2022/11/16 12:06:25;;;;;;;17.33;4.72;;;;;;;10.92;100.00;99758.13;5039425;28;20374;-46
2022/11/16 12:09:06;;;;;;;9.52;4.00;;;;;;;10.80;100.00;99760.66;5033955;28;20407;-46
2022/11/16 12:11:44;;;;;;;10.30;3.70;;;;;;;10.62;100.00;99758.63;5043900;28;20040;-46